Terminal Aerodrome Forecast
Issued by NWS

Home | Current Version | Previous Version | Text Only | Print | Product List | Glossary On
Versions: 1 2 3 4 5 6 7 8 9 10 11 12
000
FTUS44 KEPZ 230531
TAFLRU
TAF
KLRU 230531Z 2306/2406 24010KT P6SM FEW150 SCT250
     FM231500 23016G26KT P6SM SCT060
     FM231700 23025G35KT P6SM SCT060 BKN120 BKN200
     FM232200 27030G40KT 4SM BLDU SCT060 BKN120 BKN180
     FM240300 30020G30KT P6SM SCT060 BKN120 BKN180=

USA.gov is the U.S. government's official web portal to all federal, state and local government web resources and services.